Time;durP1;ratioP1;P1;durP2;ratioP2;P2;SDS_P1;SDS_P2;PMS_P1;PMS_P2;Temp;Humidity;BMP_temperature;BMP_pressure;BME280_temperature;BME280_humidity;BME280_pressure;Samples;Min_cycle;Max_cycle;Signal;HPM_P1;HPM_P2
2022/03/10 00:00:17;;;;;;;11.05;7.60;;;;;;;;;;5075789;28;20055;-69
2022/03/10 00:03:03;;;;;;;11.98;7.10;;;;;;;;;;5082977;28;20059;-71
2022/03/10 00:05:28;;;;;;;9.43;6.68;;;;;;;;;;5083104;28;20043;-70
2022/03/10 00:07:54;;;;;;;11.30;7.18;;;;;;;;;;5079811;28;21867;-68
2022/03/10 00:10:20;;;;;;;9.20;6.72;;;;;;;;;;5080581;28;20055;-67
2022/03/10 00:12:48;;;;;;;9.23;7.18;;;;;;;;;;5082098;28;20473;-69
2022/03/10 00:15:14;;;;;;;9.48;6.93;;;;;;;;;;5081339;28;20064;-69
2022/03/10 00:17:40;;;;;;;10.02;7.65;;;;;;;;;;5078457;28;20386;-67
2022/03/10 00:20:06;;;;;;;13.82;7.15;;;;;;;;;;5078359;28;20058;-70
2022/03/10 00:22:46;;;;;;;10.35;7.00;;;;;;;;;;5080502;28;20481;-68
2022/03/10 00:25:13;;;;;;;10.38;7.00;;;;;;;;;;5082166;28;20058;-69
2022/03/10 00:27:39;;;;;;;7.22;5.88;;;;;;;;;;5078009;28;20048;-68
2022/03/10 00:30:05;;;;;;;13.32;7.15;;;;;;;;;;5079085;28;20071;-71
2022/03/10 00:32:31;;;;;;;9.15;5.65;;;;;;;;;;5081776;28;20410;-70
2022/03/10 00:34:57;;;;;;;10.10;6.25;;;;;;;;;;5081937;28;20051;-68
2022/03/10 00:37:23;;;;;;;6.97;5.47;;;;;;;;;;5077933;28;20064;-70
2022/03/10 00:39:49;;;;;;;7.25;5.70;;;;;;;;;;5080756;28;20059;-71
2022/03/10 00:42:15;;;;;;;8.25;5.90;;;;;;;;;;5082292;28;20052;-70
2022/03/10 00:44:40;;;;;;;9.38;5.80;;;;;;;;;;5082276;28;20136;-70
2022/03/10 00:47:06;;;;;;;7.75;5.57;;;;;;;;;;5077303;28;20108;-70
2022/03/10 00:49:32;;;;;;;8.23;5.63;;;;;;;;;;5082323;28;20423;-68
2022/03/10 00:51:58;;;;;;;9.90;5.47;;;;;;;;;;5082673;28;20066;-69
2022/03/10 00:54:24;;;;;;;7.45;5.10;;;;;;;;;;5082323;28;20109;-68
2022/03/10 00:56:50;;;;;;;9.07;5.03;;;;;;;;;;5078952;28;20086;-68
2022/03/10 00:59:16;;;;;;;7.95;5.18;;;;;;;;;;5077954;28;20479;-67
2022/03/10 01:01:42;;;;;;;7.63;5.63;;;;;;;;;;5080247;28;20068;-70
2022/03/10 01:04:08;;;;;;;9.23;5.70;;;;;;;;;;5081058;28;20513;-67
2022/03/10 01:06:34;;;;;;;10.50;7.20;;;;;;;;;;5076959;28;20089;-70
2022/03/10 01:08:59;;;;;;;9.20;5.72;;;;;;;;;;5080426;28;20059;-70
2022/03/10 01:11:25;;;;;;;8.30;5.65;;;;;;;;;;5081424;28;20048;-69
2022/03/10 01:13:51;;;;;;;7.65;5.47;;;;;;;;;;5079569;28;20088;-68
2022/03/10 01:16:18;;;;;;;9.18;5.05;;;;;;;;;;5078392;28;20453;-69
2022/03/10 01:18:44;;;;;;;7.78;5.90;;;;;;;;;;5081564;28;21230;-69
2022/03/10 01:21:10;;;;;;;9.10;5.43;;;;;;;;;;5079200;28;20055;-68
2022/03/10 01:23:36;;;;;;;10.15;5.65;;;;;;;;;;5080832;28;20102;-69
2022/03/10 01:26:02;;;;;;;9.00;5.50;;;;;;;;;;5062524;28;20158;-71
2022/03/10 01:28:28;;;;;;;7.30;5.35;;;;;;;;;;5078652;28;20058;-69
2022/03/10 01:30:54;;;;;;;7.65;5.45;;;;;;;;;;5079669;28;20507;-67
2022/03/10 01:33:20;;;;;;;10.80;6.00;;;;;;;;;;5080093;28;20059;-69
2022/03/10 01:35:45;;;;;;;10.95;5.78;;;;;;;;;;5079563;28;20051;-67
2022/03/10 01:38:11;;;;;;;11.50;6.10;;;;;;;;;;5077367;28;20131;-67
2022/03/10 01:40:37;;;;;;;10.30;5.70;;;;;;;;;;5075867;28;20058;-69
2022/03/10 01:43:03;;;;;;;10.65;5.35;;;;;;;;;;5079376;28;20411;-69
2022/03/10 01:45:29;;;;;;;8.00;5.78;;;;;;;;;;5080301;28;20932;-70
2022/03/10 01:47:55;;;;;;;9.85;5.75;;;;;;;;;;5077755;28;20060;-69
2022/03/10 01:50:20;;;;;;;8.35;5.22;;;;;;;;;;5078425;28;20499;-68
2022/03/10 01:52:48;;;;;;;8.55;5.50;;;;;;;;;;5078744;28;20094;-71
2022/03/10 01:55:14;;;;;;;10.35;5.70;;;;;;;;;;5080284;28;20103;-69
2022/03/10 01:57:45;;;;;;;10.02;6.18;;;;;;;;;;5076542;28;20052;-70
2022/03/10 02:00:15;;;;;;;7.43;5.63;;;;;;;;;;5077397;28;20613;-70
2022/03/10 02:02:42;;;;;;;9.05;5.22;;;;;;;;;;5080450;28;20047;-69
2022/03/10 02:05:08;;;;;;;9.18;5.63;;;;;;;;;;5077395;28;20118;-70
2022/03/10 02:13:45;;;;;;;7.30;5.30;;;;;;;;;;5616858;22;20043;-70
2022/03/10 02:18:57;;;;;;;7.53;5.50;;;;;;;;;;4995930;28;20462;-72
2022/03/10 02:21:24;;;;;;;8.75;5.45;;;;;;;;;;4996579;28;20049;-72
2022/03/10 02:23:50;;;;;;;12.98;5.55;;;;;;;;;;4996367;28;20182;-71
2022/03/10 02:26:16;;;;;;;9.65;5.22;;;;;;;;;;4993798;28;20248;-71
2022/03/10 02:28:42;;;;;;;8.15;5.25;;;;;;;;;;4995906;28;21262;-71
2022/03/10 02:31:09;;;;;;;7.60;5.43;;;;;;;;;;4993394;28;20128;-71
2022/03/10 02:33:35;;;;;;;8.00;5.20;;;;;;;;;;4993979;28;20709;-73
2022/03/10 02:36:02;;;;;;;8.65;5.90;;;;;;;;;;4993972;28;20066;-75
2022/03/10 02:38:28;;;;;;;8.45;5.68;;;;;;;;;;4992681;28;20156;-72
2022/03/10 02:40:54;;;;;;;8.32;5.55;;;;;;;;;;4992896;28;20411;-71
2022/03/10 02:43:20;;;;;;;7.80;5.22;;;;;;;;;;4998378;28;20053;-73
2022/03/10 02:45:47;;;;;;;7.95;5.63;;;;;;;;;;4998176;28;20045;-71
2022/03/10 02:48:14;;;;;;;8.15;5.22;;;;;;;;;;4998554;28;20054;-71
2022/03/10 02:50:40;;;;;;;7.43;5.40;;;;;;;;;;4999084;28;20105;-70
2022/03/10 02:53:06;;;;;;;9.20;5.78;;;;;;;;;;4997313;28;20049;-71
2022/03/10 02:55:32;;;;;;;7.60;5.47;;;;;;;;;;4994504;28;20421;-71
2022/03/10 02:57:58;;;;;;;8.55;5.75;;;;;;;;;;4993125;28;20060;-72
2022/03/10 03:00:24;;;;;;;9.93;5.70;;;;;;;;;;4991698;28;20053;-71
2022/03/10 03:02:50;;;;;;;10.45;6.32;;;;;;;;;;4993156;28;20050;-72
2022/03/10 03:05:16;;;;;;;8.48;6.13;;;;;;;;;;4995113;28;20046;-71
2022/03/10 03:07:43;;;;;;;10.43;5.90;;;;;;;;;;4995821;28;20045;-71
2022/03/10 03:10:10;;;;;;;7.47;5.72;;;;;;;;;;4996462;28;20056;-72
2022/03/10 03:12:50;;;;;;;10.23;6.57;;;;;;;;;;4995107;28;20437;-72
2022/03/10 03:15:17;;;;;;;11.40;6.80;;;;;;;;;;4971961;28;20730;-73
2022/03/10 03:17:43;;;;;;;10.90;6.75;;;;;;;;;;4970756;28;20054;-72
2022/03/10 03:20:14;;;;;;;10.25;6.78;;;;;;;;;;4972958;28;20057;-73
2022/03/10 03:22:41;;;;;;;12.23;7.60;;;;;;;;;;4973327;28;20554;-71
2022/03/10 03:25:10;;;;;;;10.88;7.22;;;;;;;;;;4973692;28;20053;-75
2022/03/10 03:27:36;;;;;;;12.43;7.40;;;;;;;;;;4971377;28;20050;-72
2022/03/10 03:30:04;;;;;;;11.60;7.70;;;;;;;;;;4972840;28;20046;-72
2022/03/10 03:32:30;;;;;;;14.98;8.43;;;;;;;;;;4976350;28;20392;-72
2022/03/10 03:34:56;;;;;;;13.13;7.30;;;;;;;;;;4974551;28;20548;-73
2022/03/10 03:37:22;;;;;;;13.85;7.43;;;;;;;;;;4972348;28;20464;-71
2022/03/10 03:39:48;;;;;;;16.65;7.80;;;;;;;;;;4973380;28;20089;-73
2022/03/10 03:42:14;;;;;;;18.95;8.07;;;;;;;;;;4978729;28;20133;-74
2022/03/10 03:44:39;;;;;;;14.35;8.52;;;;;;;;;;4978107;28;20458;-73
2022/03/10 03:47:05;;;;;;;14.57;7.53;;;;;;;;;;4969042;28;20140;-71
2022/03/10 03:49:31;;;;;;;13.43;7.75;;;;;;;;;;4973321;28;20751;-73
2022/03/10 03:51:57;;;;;;;14.90;8.65;;;;;;;;;;4978245;28;20054;-72
2022/03/10 03:54:24;;;;;;;15.55;8.32;;;;;;;;;;4976121;28;20065;-73
2022/03/10 03:56:50;;;;;;;16.75;9.30;;;;;;;;;;4973363;28;20061;-71
2022/03/10 03:59:16;;;;;;;17.75;8.75;;;;;;;;;;4973122;28;20061;-72
2022/03/10 04:01:42;;;;;;;18.60;8.55;;;;;;;;;;4973999;28;20069;-73
2022/03/10 04:04:08;;;;;;;16.40;9.30;;;;;;;;;;4974237;28;20134;-72
2022/03/10 04:06:33;;;;;;;17.52;8.95;;;;;;;;;;4973655;28;20083;-73
2022/03/10 04:08:59;;;;;;;13.45;8.02;;;;;;;;;;4976624;28;20065;-72
2022/03/10 04:11:25;;;;;;;13.65;7.93;;;;;;;;;;4976506;28;20046;-72
2022/03/10 04:13:51;;;;;;;14.55;8.30;;;;;;;;;;4982209;28;20091;-73
2022/03/10 04:16:18;;;;;;;10.60;7.47;;;;;;;;;;4990443;28;20057;-72
2022/03/10 04:18:43;;;;;;;12.27;8.23;;;;;;;;;;4994831;28;20536;-73
2022/03/10 04:21:09;;;;;;;12.90;8.75;;;;;;;;;;4992480;28;20058;-72
2022/03/10 04:23:35;;;;;;;16.75;9.10;;;;;;;;;;4994475;28;20058;-73
2022/03/10 04:26:01;;;;;;;17.38;8.70;;;;;;;;;;4993605;28;20081;-72
2022/03/10 04:28:27;;;;;;;15.93;9.10;;;;;;;;;;4991131;28;20072;-74
2022/03/10 04:30:53;;;;;;;12.43;8.82;;;;;;;;;;4990356;28;20057;-71
2022/03/10 04:33:19;;;;;;;16.98;9.45;;;;;;;;;;4991789;28;20053;-71
2022/03/10 04:35:45;;;;;;;14.50;9.30;;;;;;;;;;4991639;28;20061;-73
2022/03/10 04:38:11;;;;;;;13.75;9.70;;;;;;;;;;4990860;28;20872;-71
2022/03/10 04:40:37;;;;;;;15.90;9.60;;;;;;;;;;4989414;28;20825;-72
2022/03/10 04:43:03;;;;;;;15.93;9.15;;;;;;;;;;4994713;28;20092;-72
2022/03/10 04:45:29;;;;;;;11.35;8.82;;;;;;;;;;4993199;28;20049;-73
2022/03/10 04:47:55;;;;;;;14.55;9.10;;;;;;;;;;4994166;28;20085;-72
2022/03/10 04:50:21;;;;;;;11.85;7.95;;;;;;;;;;4990394;28;20041;-76
2022/03/10 04:52:47;;;;;;;14.55;8.52;;;;;;;;;;4995230;28;20108;-72
2022/03/10 04:55:13;;;;;;;12.07;7.95;;;;;;;;;;4996574;28;20670;-73
2022/03/10 04:57:40;;;;;;;11.48;7.05;;;;;;;;;;4995126;28;20056;-71
2022/03/10 05:00:10;;;;;;;9.90;7.10;;;;;;;;;;4993183;28;20053;-72
2022/03/10 05:02:40;;;;;;;15.93;7.78;;;;;;;;;;4998226;28;20054;-73
2022/03/10 05:05:11;;;;;;;11.43;7.65;;;;;;;;;;4996024;28;20054;-73
2022/03/10 05:07:37;;;;;;;14.80;7.90;;;;;;;;;;4997633;28;20053;-73
2022/03/10 05:10:03;;;;;;;14.07;7.95;;;;;;;;;;4997073;28;20056;-72
2022/03/10 05:12:29;;;;;;;11.05;7.78;;;;;;;;;;4996796;28;20060;-72
2022/03/10 05:14:55;;;;;;;14.20;7.50;;;;;;;;;;4992867;28;20473;-72
2022/03/10 05:17:23;;;;;;;13.48;7.68;;;;;;;;;;5005556;28;20075;-72
2022/03/10 05:19:51;;;;;;;12.27;7.43;;;;;;;;;;4992739;28;20136;-70
2022/03/10 05:22:17;;;;;;;11.27;7.18;;;;;;;;;;4993202;28;20065;-72
2022/03/10 05:24:43;;;;;;;12.85;7.72;;;;;;;;;;4993171;28;20058;-73
2022/03/10 05:27:09;;;;;;;9.75;6.80;;;;;;;;;;4993985;28;20073;-72
2022/03/10 05:29:40;;;;;;;10.23;7.00;;;;;;;;;;4994081;28;20565;-72
2022/03/10 05:32:16;;;;;;;8.77;6.88;;;;;;;;;;4993597;28;20116;-73
2022/03/10 05:34:42;;;;;;;10.65;7.07;;;;;;;;;;4995586;28;20524;-72
2022/03/10 05:37:08;;;;;;;9.55;7.05;;;;;;;;;;4993853;28;20049;-70
2022/03/10 05:39:34;;;;;;;10.95;7.18;;;;;;;;;;4995137;28;20052;-72
2022/03/10 05:42:00;;;;;;;13.07;7.07;;;;;;;;;;4994398;28;20574;-72
2022/03/10 05:44:26;;;;;;;14.27;7.95;;;;;;;;;;4993524;28;20046;-73
2022/03/10 05:46:52;;;;;;;12.15;7.50;;;;;;;;;;4990524;28;20195;-71
2022/03/10 05:49:18;;;;;;;11.30;7.18;;;;;;;;;;4992894;28;20057;-72
2022/03/10 05:51:44;;;;;;;10.98;7.20;;;;;;;;;;4994874;28;20136;-72
2022/03/10 05:54:10;;;;;;;12.10;7.15;;;;;;;;;;4995695;28;20054;-73
2022/03/10 05:56:36;;;;;;;10.88;7.25;;;;;;;;;;4992167;28;20049;-72
2022/03/10 05:59:01;;;;;;;12.43;7.28;;;;;;;;;;4997435;28;20053;-72
2022/03/10 06:01:27;;;;;;;11.27;7.22;;;;;;;;;;4993788;28;20050;-71
2022/03/10 06:03:53;;;;;;;14.05;7.55;;;;;;;;;;4992955;28;20057;-71
2022/03/10 06:06:19;;;;;;;13.60;6.78;;;;;;;;;;4990623;28;20054;-72
2022/03/10 06:08:45;;;;;;;10.48;6.88;;;;;;;;;;4992845;28;20046;-72
2022/03/10 06:11:11;;;;;;;10.63;6.75;;;;;;;;;;4995122;28;20045;-73
2022/03/10 06:13:37;;;;;;;13.02;6.95;;;;;;;;;;4995251;28;20914;-75
2022/03/10 06:16:03;;;;;;;12.27;7.03;;;;;;;;;;4996970;28;20065;-74
2022/03/10 06:18:30;;;;;;;11.93;6.72;;;;;;;;;;4994977;28;20050;-72
2022/03/10 06:20:56;;;;;;;14.80;6.88;;;;;;;;;;4992275;28;20050;-73
2022/03/10 06:23:21;;;;;;;11.13;6.78;;;;;;;;;;4995803;28;20054;-73
2022/03/10 06:25:47;;;;;;;13.50;7.80;;;;;;;;;;4993211;28;21137;-73
2022/03/10 06:28:13;;;;;;;14.80;7.47;;;;;;;;;;4993368;28;20049;-73
2022/03/10 06:30:39;;;;;;;11.38;7.30;;;;;;;;;;4993856;28;20394;-75
2022/03/10 06:33:05;;;;;;;16.27;7.60;;;;;;;;;;4996347;28;20073;-75
2022/03/10 06:35:31;;;;;;;12.07;7.55;;;;;;;;;;4996308;28;20083;-73
2022/03/10 06:37:57;;;;;;;17.75;8.18;;;;;;;;;;4993733;28;20164;-72
2022/03/10 06:40:23;;;;;;;14.63;8.30;;;;;;;;;;4994500;28;20084;-74
2022/03/10 06:42:48;;;;;;;12.40;7.05;;;;;;;;;;4997680;28;20049;-76
2022/03/10 06:45:14;;;;;;;15.55;7.00;;;;;;;;;;4996038;28;20064;-72
2022/03/10 06:47:40;;;;;;;15.68;7.22;;;;;;;;;;4992397;28;20450;-73
2022/03/10 06:50:06;;;;;;;16.45;7.72;;;;;;;;;;4992193;28;20053;-73
2022/03/10 06:52:33;;;;;;;13.57;7.07;;;;;;;;;;5009981;28;20134;-73
2022/03/10 06:54:59;;;;;;;13.65;7.00;;;;;;;;;;4996445;28;20887;-73
2022/03/10 06:57:25;;;;;;;14.63;7.10;;;;;;;;;;4993665;28;20056;-73
2022/03/10 06:59:50;;;;;;;15.18;8.52;;;;;;;;;;4994005;28;20172;-73
2022/03/10 07:02:17;;;;;;;11.32;7.10;;;;;;;;;;4995297;28;20057;-72
2022/03/10 07:04:43;;;;;;;11.75;6.60;;;;;;;;;;4996163;28;20060;-74
2022/03/10 07:07:09;;;;;;;12.88;7.60;;;;;;;;;;4992433;28;20042;-73
2022/03/10 07:09:35;;;;;;;14.63;6.70;;;;;;;;;;4999564;28;20857;-73
2022/03/10 07:12:01;;;;;;;15.95;7.63;;;;;;;;;;4996493;28;20459;-75
2022/03/10 07:14:27;;;;;;;11.25;6.75;;;;;;;;;;4992838;28;20068;-75
2022/03/10 07:16:53;;;;;;;12.57;6.38;;;;;;;;;;4991661;28;20060;-74
2022/03/10 07:19:19;;;;;;;9.57;6.40;;;;;;;;;;4992017;28;20053;-75
2022/03/10 07:21:45;;;;;;;9.45;6.15;;;;;;;;;;5000212;28;20058;-78
2022/03/10 07:24:11;;;;;;;12.52;6.55;;;;;;;;;;4983583;28;20063;-74
2022/03/10 07:26:37;;;;;;;17.30;6.30;;;;;;;;;;4999268;28;20546;-75
2022/03/10 07:29:03;;;;;;;16.45;6.00;;;;;;;;;;5002292;28;20049;-75
2022/03/10 07:31:30;;;;;;;9.73;6.00;;;;;;;;;;4998496;28;20050;-75
2022/03/10 07:33:56;;;;;;;9.77;5.68;;;;;;;;;;4997526;28;20252;-75
2022/03/10 07:36:23;;;;;;;13.18;6.20;;;;;;;;;;4993496;28;20053;-74
2022/03/10 07:38:49;;;;;;;9.02;5.50;;;;;;;;;;4994869;28;20430;-75
2022/03/10 07:41:14;;;;;;;9.85;5.78;;;;;;;;;;4992959;28;20411;-73
2022/03/10 07:43:40;;;;;;;10.80;6.20;;;;;;;;;;4997043;28;20058;-74
2022/03/10 07:46:06;;;;;;;14.02;5.70;;;;;;;;;;4997204;28;20340;-74
2022/03/10 07:48:33;;;;;;;13.20;6.53;;;;;;;;;;4989500;28;20063;-71
2022/03/10 07:51:00;;;;;;;13.77;5.63;;;;;;;;;;4996402;28;20081;-74
2022/03/10 07:53:26;;;;;;;12.25;5.70;;;;;;;;;;5006353;28;20100;-74
2022/03/10 07:55:55;;;;;;;11.15;5.57;;;;;;;;;;4999868;28;20616;-72
2022/03/10 07:58:28;;;;;;;10.02;5.75;;;;;;;;;;4999276;28;20049;-72
2022/03/10 08:00:55;;;;;;;11.80;6.20;;;;;;;;;;5003625;28;20505;-71
2022/03/10 08:03:27;;;;;;;16.75;6.18;;;;;;;;;;4999268;28;20497;-71
2022/03/10 08:05:53;;;;;;;11.15;5.85;;;;;;;;;;4999119;28;20061;-71
2022/03/10 08:08:20;;;;;;;9.63;5.90;;;;;;;;;;4995185;28;20050;-72
2022/03/10 08:10:46;;;;;;;12.55;6.40;;;;;;;;;;4998568;28;20110;-74
2022/03/10 08:13:12;;;;;;;17.10;5.78;;;;;;;;;;4999979;28;20057;-73
2022/03/10 08:15:40;;;;;;;9.70;5.97;;;;;;;;;;4999203;28;20050;-75
2022/03/10 08:18:06;;;;;;;10.55;6.18;;;;;;;;;;4996772;28;20335;-73
2022/03/10 08:20:32;;;;;;;17.23;5.82;;;;;;;;;;4998090;28;20543;-72
2022/03/10 08:22:58;;;;;;;15.57;5.90;;;;;;;;;;5002177;28;20565;-71
2022/03/10 08:25:24;;;;;;;13.57;6.55;;;;;;;;;;5002958;28;20053;-74
2022/03/10 08:27:50;;;;;;;15.93;6.53;;;;;;;;;;4994312;28;20049;-71
2022/03/10 08:30:16;;;;;;;10.60;6.53;;;;;;;;;;5003979;28;20505;-73
2022/03/10 08:32:43;;;;;;;12.27;5.88;;;;;;;;;;5002043;28;20057;-73
2022/03/10 08:35:09;;;;;;;13.88;5.82;;;;;;;;;;4999883;28;20092;-73
2022/03/10 08:37:35;;;;;;;15.70;6.47;;;;;;;;;;4996846;28;20050;-75
2022/03/10 08:40:01;;;;;;;15.02;6.22;;;;;;;;;;5002842;28;20046;-70
2022/03/10 08:42:27;;;;;;;13.63;6.50;;;;;;;;;;5004367;28;20058;-66
2022/03/10 08:44:53;;;;;;;12.15;5.80;;;;;;;;;;5003804;28;20061;-70
2022/03/10 08:47:19;;;;;;;12.13;6.35;;;;;;;;;;5001718;28;20053;-69
2022/03/10 08:49:44;;;;;;;11.65;6.40;;;;;;;;;;5011376;28;20110;-71
2022/03/10 08:52:11;;;;;;;13.65;6.30;;;;;;;;;;5017264;28;20567;-74
2022/03/10 08:54:37;;;;;;;14.60;7.53;;;;;;;;;;5009339;28;20075;-79
2022/03/10 08:57:02;;;;;;;16.75;6.95;;;;;;;;;;5006036;28;20165;-76
2022/03/10 08:59:29;;;;;;;16.52;8.77;;;;;;;;;;5008325;28;20061;-78
2022/03/10 09:01:54;;;;;;;19.80;9.07;;;;;;;;;;5008167;28;20061;-68
2022/03/10 09:04:20;;;;;;;18.30;9.23;;;;;;;;;;5008564;28;20072;-68
2022/03/10 09:06:46;;;;;;;17.98;10.95;;;;;;;;;;5007012;28;20053;-76
2022/03/10 09:09:12;;;;;;;21.45;9.95;;;;;;;;;;5011206;28;20054;-71
2022/03/10 09:11:38;;;;;;;23.00;10.77;;;;;;;;;;5005810;28;20052;-71
2022/03/10 09:14:04;;;;;;;16.73;9.57;;;;;;;;;;5006429;28;20066;-69
2022/03/10 09:16:30;;;;;;;21.10;10.48;;;;;;;;;;5000880;28;20049;-73
2022/03/10 09:18:56;;;;;;;21.10;10.93;;;;;;;;;;5003497;28;20057;-75
2022/03/10 09:21:22;;;;;;;21.92;10.45;;;;;;;;;;5003771;28;20084;-70
2022/03/10 09:23:48;;;;;;;16.77;9.55;;;;;;;;;;4999621;28;20065;-73
2022/03/10 09:26:15;;;;;;;17.17;9.45;;;;;;;;;;5001732;28;20093;-69
2022/03/10 09:28:42;;;;;;;21.05;9.77;;;;;;;;;;5003038;28;20053;-77
2022/03/10 09:31:12;;;;;;;22.30;9.15;;;;;;;;;;5001762;28;20132;-72
2022/03/10 09:33:42;;;;;;;15.60;9.30;;;;;;;;;;5000570;28;20131;-73
2022/03/10 09:36:09;;;;;;;22.92;9.38;;;;;;;;;;4999457;28;20088;-76
2022/03/10 09:38:34;;;;;;;19.23;9.07;;;;;;;;;;4999030;28;20320;-71
2022/03/10 09:41:00;;;;;;;13.13;8.32;;;;;;;;;;4999010;28;20064;-75
2022/03/10 09:43:29;;;;;;;14.20;8.10;;;;;;;;;;4998217;28;20493;-71
2022/03/10 09:45:55;;;;;;;10.60;7.53;;;;;;;;;;4997630;28;20140;-69
2022/03/10 09:48:21;;;;;;;13.15;7.40;;;;;;;;;;4995054;28;20057;-71
2022/03/10 09:50:48;;;;;;;17.88;8.05;;;;;;;;;;4997253;28;20104;-72
2022/03/10 09:53:15;;;;;;;16.08;8.27;;;;;;;;;;5003264;28;20092;-73
2022/03/10 09:55:41;;;;;;;13.35;8.30;;;;;;;;;;5005460;28;20057;-73
2022/03/10 09:58:07;;;;;;;15.20;7.93;;;;;;;;;;5003254;28;20750;-72
2022/03/10 10:00:33;;;;;;;11.98;7.68;;;;;;;;;;5006156;28;20447;-77
2022/03/10 10:02:59;;;;;;;13.70;8.15;;;;;;;;;;5003538;28;20457;-68
2022/03/10 10:05:28;;;;;;;14.07;7.55;;;;;;;;;;5007440;28;20045;-68
2022/03/10 10:08:08;;;;;;;14.40;7.53;;;;;;;;;;5004302;28;20410;-69
2022/03/10 10:10:36;;;;;;;14.50;8.48;;;;;;;;;;5007144;28;20054;-73
2022/03/10 10:13:06;;;;;;;12.40;7.73;;;;;;;;;;4952174;28;1697649;-75
2022/03/10 10:15:33;;;;;;;15.57;8.15;;;;;;;;;;5012844;28;20057;-67
2022/03/10 10:18:00;;;;;;;41.63;8.40;;;;;;;;;;5019340;28;20054;-73
2022/03/10 10:20:44;;;;;;;13.88;6.53;;;;;;;;;;5015119;28;20398;-72
2022/03/10 10:23:16;;;;;;;10.15;7.03;;;;;;;;;;5020153;28;20570;-73
2022/03/10 10:26:09;;;;;;;12.88;6.10;;;;;;;;;;5021778;28;20053;-74
2022/03/10 10:28:39;;;;;;;8.40;5.32;;;;;;;;;;5024848;28;20077;-69
2022/03/10 10:31:10;;;;;;;9.90;5.80;;;;;;;;;;5018697;28;20092;-72
2022/03/10 10:33:38;;;;;;;13.65;5.90;;;;;;;;;;5025959;28;20414;-71
2022/03/10 10:36:24;;;;;;;13.75;6.43;;;;;;;;;;5031581;28;20490;-72
2022/03/10 10:38:52;;;;;;;10.68;6.55;;;;;;;;;;5022402;28;20078;-71
2022/03/10 10:41:20;;;;;;;9.27;7.22;;;;;;;;;;5018473;28;20565;-74
2022/03/10 10:44:08;;;;;;;11.60;7.30;;;;;;;;;;5021377;28;20511;-74
2022/03/10 10:46:40;;;;;;;12.73;7.68;;;;;;;;;;5020468;28;20054;-75
2022/03/10 10:49:15;;;;;;;11.48;8.32;;;;;;;;;;5021078;28;20084;-75
2022/03/10 10:51:41;;;;;;;10.93;7.70;;;;;;;;;;5016791;28;20061;-76
2022/03/10 10:54:23;;;;;;;14.30;7.75;;;;;;;;;;5018481;28;20128;-78
2022/03/10 10:56:56;;;;;;;12.77;7.80;;;;;;;;;;5019090;28;20092;-72
2022/03/10 10:59:45;;;;;;;14.10;7.85;;;;;;;;;;5015747;28;20465;-72
2022/03/10 11:02:20;;;;;;;12.45;7.40;;;;;;;;;;5016842;28;20418;-78
2022/03/10 11:04:50;;;;;;;;;;;;;;;;;;5014733;28;20050;-77
2022/03/10 11:07:17;;;;;;;14.63;7.78;;;;;;;;;;5013714;28;19992;-79
2022/03/10 11:09:47;;;;;;;13.65;7.65;;;;;;;;;;5015820;28;20048;-76
2022/03/10 11:12:15;;;;;;;14.00;7.90;;;;;;;;;;5010958;28;20107;-75
2022/03/10 11:14:44;;;;;;;12.15;5.72;;;;;;;;;;5012561;28;20061;-76
2022/03/10 11:17:12;;;;;;;8.32;4.35;;;;;;;;;;5013622;28;20053;-74
2022/03/10 11:19:50;;;;;;;10.05;5.30;;;;;;;;;;5013514;28;20529;-73
2022/03/10 11:22:28;;;;;;;11.73;4.75;;;;;;;;;;5013802;28;20092;-77
2022/03/10 11:25:16;;;;;;;7.50;5.32;;;;;;;;;;5010266;28;20049;-75
2022/03/10 11:27:56;;;;;;;10.20;5.35;;;;;;;;;;5009433;28;20052;-77
2022/03/10 11:30:26;;;;;;;12.05;6.05;;;;;;;;;;5011915;28;20057;-74
2022/03/10 11:33:04;;;;;;;9.27;5.90;;;;;;;;;;5011213;28;20062;-72
2022/03/10 11:35:41;;;;;;;9.93;6.47;;;;;;;;;;5014608;28;20061;-73
2022/03/10 11:38:08;;;;;;;11.18;6.80;;;;;;;;;;5014177;28;20053;-74
2022/03/10 11:40:51;;;;;;;10.25;6.07;;;;;;;;;;5013276;28;20069;-72
2022/03/10 11:43:20;;;;;;;10.32;6.18;;;;;;;;;;5013396;28;20053;-75
2022/03/10 11:45:46;;;;;;;11.10;6.50;;;;;;;;;;5012969;28;20037;-79
2022/03/10 11:48:27;;;;;;;11.02;6.65;;;;;;;;;;5016946;28;20098;-75
2022/03/10 11:50:55;;;;;;;15.80;6.25;;;;;;;;;;5023755;28;20060;-74
2022/03/10 11:53:21;;;;;;;13.35;6.30;;;;;;;;;;5028574;28;20042;-74
2022/03/10 11:55:52;;;;;;;7.60;5.90;;;;;;;;;;5012557;28;20509;-76
2022/03/10 11:58:34;;;;;;;8.50;5.35;;;;;;;;;;5011350;28;20501;-74
2022/03/10 12:01:01;;;;;;;10.05;5.88;;;;;;;;;;5012676;28;20495;-73
2022/03/10 12:03:28;;;;;;;9.10;5.43;;;;;;;;;;5014104;28;20103;-76
2022/03/10 12:05:58;;;;;;;7.50;5.70;;;;;;;;;;5017910;28;20066;-76
2022/03/10 12:08:35;;;;;;;7.75;5.70;;;;;;;;;;5019688;28;20045;-73
2022/03/10 12:11:04;;;;;;;10.95;5.43;;;;;;;;;;5012532;28;20125;-74
2022/03/10 12:13:36;;;;;;;10.73;5.57;;;;;;;;;;5017802;28;20057;-74
2022/03/10 12:16:07;;;;;;;10.20;5.88;;;;;;;;;;5015687;28;20061;-74
2022/03/10 12:18:42;;;;;;;8.48;6.05;;;;;;;;;;5016751;28;20446;-73
2022/03/10 12:21:28;;;;;;;12.70;6.03;;;;;;;;;;5013221;28;20418;-71
2022/03/10 12:24:02;;;;;;;10.73;5.63;;;;;;;;;;5027291;28;20127;-77
2022/03/10 12:26:30;;;;;;;;;;;;;;;;;;5021248;28;20057;-71
2022/03/10 12:29:04;;;;;;;11.05;5.97;;;;;;;;;;5025685;28;20012;-75
2022/03/10 12:31:35;;;;;;;11.65;6.47;;;;;;;;;;5029857;28;20068;-74
2022/03/10 12:34:05;;;;;;;9.60;6.43;;;;;;;;;;5026719;28;20057;-77
2022/03/10 12:36:41;;;;;;;10.35;6.07;;;;;;;;;;5033006;28;20055;-80
2022/03/10 12:39:10;;;;;;;11.48;6.20;;;;;;;;;;5030562;28;20030;-78
2022/03/10 12:41:43;;;;;;;12.50;7.10;;;;;;;;;;5041719;28;20127;-72
2022/03/10 12:44:11;;;;;;;14.65;6.32;;;;;;;;;;5036785;28;20046;-80
2022/03/10 12:46:39;;;;;;;9.57;6.43;;;;;;;;;;5041585;28;20037;-79
2022/03/10 12:49:23;;;;;;;11.05;7.03;;;;;;;;;;5036119;28;20165;-79
2022/03/10 12:51:50;;;;;;;11.75;7.22;;;;;;;;;;5028939;28;20120;-72
2022/03/10 12:54:16;;;;;;;10.88;7.35;;;;;;;;;;5036480;28;20045;-71
2022/03/10 12:56:45;;;;;;;13.63;7.85;;;;;;;;;;5033221;28;20045;-73
2022/03/10 12:59:12;;;;;;;11.98;8.07;;;;;;;;;;5034275;28;20498;-75
2022/03/10 13:01:39;;;;;;;10.48;6.85;;;;;;;;;;5033566;28;20046;-74
2022/03/10 13:04:13;;;;;;;12.75;7.07;;;;;;;;;;5031737;28;20482;-72
2022/03/10 13:06:40;;;;;;;9.15;6.68;;;;;;;;;;5031810;28;20116;-72
2022/03/10 13:09:06;;;;;;;11.13;6.47;;;;;;;;;;5032869;28;20494;-75
2022/03/10 13:11:36;;;;;;;18.00;7.30;;;;;;;;;;5025763;28;20037;-73
2022/03/10 13:14:13;;;;;;;9.75;6.30;;;;;;;;;;5033719;28;20153;-71
2022/03/10 13:16:47;;;;;;;11.45;6.15;;;;;;;;;;5030499;28;20046;-73
2022/03/10 13:19:25;;;;;;;8.70;6.35;;;;;;;;;;5034105;28;20560;-73
2022/03/10 13:21:54;;;;;;;14.02;6.43;;;;;;;;;;5034418;28;20053;-74
2022/03/10 13:24:41;;;;;;;8.38;5.97;;;;;;;;;;5035608;28;20060;-73
2022/03/10 13:27:09;;;;;;;9.93;6.05;;;;;;;;;;5028191;28;20136;-73
2022/03/10 13:29:36;;;;;;;9.30;5.93;;;;;;;;;;5025863;28;20497;-74
2022/03/10 13:32:02;;;;;;;8.38;5.60;;;;;;;;;;5034045;28;20049;-75
2022/03/10 13:34:30;;;;;;;7.10;5.55;;;;;;;;;;5023739;28;20046;-74
2022/03/10 13:36:57;;;;;;;8.38;4.65;;;;;;;;;;5028415;28;20063;-73
2022/03/10 13:39:25;;;;;;;6.45;4.35;;;;;;;;;;5033616;28;20553;-74
2022/03/10 13:41:51;;;;;;;7.78;3.33;;;;;;;;;;5030951;28;20085;-76
2022/03/10 13:44:17;;;;;;;6.70;3.13;;;;;;;;;;5032194;28;20081;-72
2022/03/10 13:46:46;;;;;;;7.88;3.00;;;;;;;;;;5031742;28;20038;-74
2022/03/10 13:49:20;;;;;;;6.03;2.70;;;;;;;;;;5029704;28;20178;-70
2022/03/10 13:51:48;;;;;;;5.13;2.50;;;;;;;;;;5023059;28;20101;-72
2022/03/10 13:54:15;;;;;;;2.38;1.80;;;;;;;;;;5018023;28;20042;-74
2022/03/10 13:56:43;;;;;;;4.47;2.40;;;;;;;;;;5030170;28;20107;-74
2022/03/10 13:59:11;;;;;;;8.70;2.90;;;;;;;;;;5031151;28;20045;-71
2022/03/10 14:01:42;;;;;;;7.78;3.10;;;;;;;;;;5028138;28;20038;-72
2022/03/10 14:04:13;;;;;;;7.88;3.58;;;;;;;;;;5028116;28;20050;-73
2022/03/10 14:06:46;;;;;;;8.38;3.70;;;;;;;;;;5033092;28;20046;-72
2022/03/10 14:09:21;;;;;;;6.72;3.83;;;;;;;;;;5032789;28;20061;-72
2022/03/10 14:11:50;;;;;;;4.40;3.20;;;;;;;;;;5023725;28;20053;-72
2022/03/10 14:14:30;;;;;;;4.65;3.13;;;;;;;;;;5029449;28;20136;-72
2022/03/10 14:16:56;;;;;;;6.53;3.85;;;;;;;;;;5022574;28;20526;-73
2022/03/10 14:19:30;;;;;;;6.20;3.33;;;;;;;;;;5021925;28;20038;-74
2022/03/10 14:21:59;;;;;;;5.82;3.38;;;;;;;;;;5026807;28;20080;-71
2022/03/10 14:24:30;;;;;;;4.60;3.17;;;;;;;;;;5020249;28;20049;-72
2022/03/10 14:27:08;;;;;;;9.48;4.47;;;;;;;;;;5025150;28;20037;-72
2022/03/10 14:29:39;;;;;;;9.73;3.70;;;;;;;;;;5024210;28;20055;-76
2022/03/10 14:32:06;;;;;;;4.63;3.03;;;;;;;;;;5023405;28;20045;-72
2022/03/10 14:34:34;;;;;;;5.82;3.53;;;;;;;;;;5027385;28;20402;-73
2022/03/10 14:37:00;;;;;;;11.75;3.90;;;;;;;;;;5025753;28;20210;-74
2022/03/10 14:39:26;;;;;;;5.68;3.42;;;;;;;;;;5015334;28;20080;-72
2022/03/10 14:41:52;;;;;;;7.80;4.35;;;;;;;;;;5021968;28;20049;-73
2022/03/10 14:44:19;;;;;;;6.75;3.70;;;;;;;;;;5021294;28;20049;-72
2022/03/10 14:46:45;;;;;;;8.68;3.90;;;;;;;;;;5014142;28;20053;-74
2022/03/10 14:49:10;;;;;;;6.63;2.72;;;;;;;;;;5011902;28;20087;-74